createdAt,value
2019-03-13T00:01:09.828Z,10.30
2019-03-13T00:03:43.259Z,10.30
2019-03-13T00:06:16.684Z,10.30
2019-03-13T00:08:50.128Z,10.30
2019-03-13T00:11:23.535Z,10.30
2019-03-13T00:13:57.239Z,10.40
2019-03-13T00:16:30.663Z,10.40
2019-03-13T00:19:04.185Z,10.40
2019-03-13T00:21:37.632Z,10.40
2019-03-13T00:24:11.119Z,10.40
2019-03-13T00:26:44.540Z,10.40
2019-03-13T00:29:18.140Z,10.40
2019-03-13T00:31:51.557Z,10.40
2019-03-13T00:34:24.992Z,10.50
2019-03-13T00:36:58.475Z,10.50
2019-03-13T00:39:31.919Z,10.50
2019-03-13T00:42:05.343Z,10.50
2019-03-13T00:44:38.783Z,10.50
2019-03-13T00:47:12.203Z,10.50
2019-03-13T00:49:45.647Z,10.50
2019-03-13T00:52:19.055Z,10.60
2019-03-13T00:54:52.484Z,10.60
2019-03-13T00:57:25.907Z,10.60
2019-03-13T00:59:59.331Z,10.50
2019-03-13T01:02:34.400Z,10.40
2019-03-13T01:05:19.467Z,10.40
2019-03-13T01:07:52.887Z,10.30
2019-03-13T01:10:26.319Z,10.20
2019-03-13T01:12:59.739Z,10.10
2019-03-13T01:15:33.165Z,10.10
2019-03-13T01:18:06.583Z,10.00
2019-03-13T01:20:40.012Z,9.90
2019-03-13T01:23:13.422Z,9.80
2019-03-13T01:25:46.844Z,9.50
2019-03-13T01:28:20.256Z,9.10
2019-03-13T01:30:55.326Z,8.80
2019-03-13T01:33:28.731Z,8.60
2019-03-13T01:36:03.800Z,8.40
2019-03-13T01:38:37.228Z,8.30
2019-03-13T01:41:10.648Z,8.20
2019-03-13T01:43:44.084Z,8.10
2019-03-13T01:46:17.504Z,8.10
2019-03-13T01:48:50.928Z,8.00
2019-03-13T01:51:24.347Z,8.00
2019-03-13T01:53:57.764Z,7.90
2019-03-13T01:56:31.208Z,7.90
2019-03-13T01:59:04.619Z,7.90
2019-03-13T02:01:38.125Z,7.80
2019-03-13T02:04:11.546Z,7.80
2019-03-13T02:06:44.959Z,7.70
2019-03-13T02:09:18.380Z,7.60
2019-03-13T02:11:51.821Z,7.60
2019-03-13T02:14:25.238Z,7.70
2019-03-13T02:16:58.682Z,7.70
2019-03-13T02:19:32.174Z,7.60
2019-03-13T02:22:05.667Z,7.60
2019-03-13T02:24:39.081Z,7.50
2019-03-13T02:27:12.525Z,7.50
2019-03-13T02:29:45.936Z,7.40
2019-03-13T02:32:19.369Z,7.40
2019-03-13T02:34:52.776Z,7.30
2019-03-13T02:37:26.214Z,7.40
2019-03-13T02:39:59.702Z,7.40
2019-03-13T02:42:33.142Z,7.40
2019-03-13T02:45:11.537Z,7.50
2019-03-13T02:47:44.987Z,7.50
2019-03-13T02:50:19.147Z,7.40
2019-03-13T02:52:52.586Z,7.40
2019-03-13T02:55:26.068Z,7.40
2019-03-13T02:57:59.503Z,7.30
2019-03-13T03:00:40.026Z,7.20
2019-03-13T03:03:26.997Z,7.20
2019-03-13T03:06:01.391Z,7.10
2019-03-13T03:08:34.806Z,7.20
2019-03-13T03:11:08.212Z,7.10
2019-03-13T03:13:41.640Z,7.10
2019-03-13T03:16:15.159Z,7.10
2019-03-13T03:18:48.660Z,7.20
2019-03-13T03:21:22.070Z,7.10
2019-03-13T03:23:55.489Z,7.10
2019-03-13T03:26:28.904Z,7.10
2019-03-13T03:29:02.334Z,7.10
2019-03-13T03:31:35.749Z,7.10
2019-03-13T03:34:09.181Z,7.20
2019-03-13T03:36:42.685Z,7.10
2019-03-13T03:39:16.114Z,7.20
2019-03-13T03:41:49.522Z,7.20
2019-03-13T03:44:22.963Z,7.10
2019-03-13T03:46:56.376Z,7.10
2019-03-13T03:49:29.802Z,7.10
2019-03-13T03:52:03.220Z,7.10
2019-03-13T03:54:36.641Z,7.10
2019-03-13T03:57:10.055Z,7.10
2019-03-13T03:59:43.488Z,7.10
2019-03-13T04:02:16.899Z,7.00
2019-03-13T04:04:50.406Z,7.00
2019-03-13T04:07:24.049Z,7.00
2019-03-13T04:09:57.467Z,7.00
2019-03-13T04:12:30.887Z,7.00
2019-03-13T04:15:06.640Z,6.90
2019-03-13T04:17:40.126Z,6.80
2019-03-13T04:20:17.806Z,6.70
2019-03-13T04:22:51.212Z,6.80
2019-03-13T04:25:27.746Z,6.80
2019-03-13T04:28:01.204Z,6.70
2019-03-13T04:30:34.629Z,6.60
2019-03-13T04:33:08.048Z,6.50
2019-03-13T04:35:41.468Z,6.60
2019-03-13T04:38:14.886Z,6.60
2019-03-13T04:40:48.301Z,6.70
2019-03-13T04:43:21.712Z,6.80
2019-03-13T04:45:55.147Z,6.80
2019-03-13T04:48:28.566Z,6.90
2019-03-13T04:51:02.106Z,6.80
2019-03-13T04:53:35.518Z,6.80
2019-03-13T04:56:08.948Z,6.80
2019-03-13T04:58:42.355Z,6.80
2019-03-13T05:01:15.785Z,6.80
2019-03-13T05:03:49.208Z,6.80
2019-03-13T05:06:22.628Z,6.80
2019-03-13T05:08:58.376Z,6.80
2019-03-13T05:11:31.807Z,6.70
2019-03-13T05:14:05.219Z,6.70
2019-03-13T05:16:38.663Z,6.70
2019-03-13T05:19:12.068Z,6.70
2019-03-13T05:21:45.491Z,6.70
2019-03-13T05:24:18.905Z,6.60
2019-03-13T05:26:52.404Z,6.60
2019-03-13T05:29:25.816Z,6.60
2019-03-13T05:31:59.247Z,6.60
2019-03-13T05:34:32.662Z,6.70
2019-03-13T05:37:06.078Z,6.70
2019-03-13T05:39:39.494Z,6.70
2019-03-13T05:42:12.923Z,6.70
2019-03-13T05:44:46.348Z,6.70
2019-03-13T05:47:19.767Z,6.70
2019-03-13T05:49:53.175Z,6.70
2019-03-13T05:52:26.616Z,6.80
2019-03-13T05:55:00.035Z,6.80
2019-03-13T05:57:33.477Z,6.80
2019-03-13T06:00:11.978Z,6.90
2019-03-13T06:02:47.660Z,6.90
2019-03-13T06:05:20.558Z,7.00
2019-03-13T06:07:54.053Z,7.10
2019-03-13T06:10:27.501Z,7.20
2019-03-13T06:13:00.976Z,7.40
2019-03-13T06:15:34.464Z,7.30
2019-03-13T06:18:09.695Z,7.30
2019-03-13T06:20:43.035Z,7.30
2019-03-13T06:23:16.476Z,7.40
2019-03-13T06:25:49.887Z,7.40
2019-03-13T06:28:23.315Z,7.40
2019-03-13T06:30:56.730Z,7.50
2019-03-13T06:33:30.169Z,7.40
2019-03-13T06:36:03.580Z,7.40
2019-03-13T06:38:37.002Z,7.40
2019-03-13T06:41:10.412Z,7.40
2019-03-13T06:43:43.831Z,7.40
2019-03-13T06:46:17.247Z,7.40
2019-03-13T06:48:50.689Z,7.40
2019-03-13T06:51:24.137Z,7.40
2019-03-13T06:53:57.565Z,7.50
2019-03-13T06:56:31.014Z,7.60
2019-03-13T06:59:08.885Z,7.70
2019-03-13T07:01:52.614Z,7.70
2019-03-13T07:04:39.864Z,7.90
2019-03-13T07:07:14.943Z,7.90
2019-03-13T07:09:52.772Z,7.90
2019-03-13T07:12:39.767Z,7.90
2019-03-13T07:15:19.067Z,8.00
2019-03-13T07:17:54.116Z,8.00
2019-03-13T07:20:35.162Z,8.00
2019-03-13T07:23:12.731Z,8.10
2019-03-13T07:25:59.636Z,8.20
2019-03-13T07:28:34.691Z,8.20
2019-03-13T07:31:09.760Z,8.30
2019-03-13T07:33:53.855Z,8.20
2019-03-13T07:36:28.915Z,8.30
2019-03-13T07:39:03.973Z,8.40
2019-03-13T07:41:41.993Z,8.30
2019-03-13T07:44:33.453Z,8.30
2019-03-13T07:47:24.458Z,8.30
2019-03-13T07:49:59.503Z,8.20
2019-03-13T07:52:40.252Z,8.30
2019-03-13T07:55:31.591Z,8.30
2019-03-13T07:58:06.658Z,8.50
2019-03-13T08:00:41.716Z,8.60
2019-03-13T08:03:16.777Z,8.60
2019-03-13T08:05:57.842Z,8.60
2019-03-13T08:08:38.891Z,8.60
2019-03-13T08:11:14.015Z,8.60
2019-03-13T08:14:03.717Z,8.60
2019-03-13T08:16:41.603Z,8.70
2019-03-13T08:19:32.978Z,8.70
2019-03-13T08:22:08.038Z,8.70
2019-03-13T08:24:54.760Z,8.80
2019-03-13T08:27:38.744Z,8.90
2019-03-13T08:30:20.275Z,8.80
2019-03-13T08:33:12.491Z,8.90
2019-03-13T08:35:47.559Z,8.90
2019-03-13T08:38:39.127Z,8.80
2019-03-13T08:41:16.622Z,8.90
2019-03-13T08:44:09.644Z,8.90
2019-03-13T08:47:00.892Z,8.90
2019-03-13T08:49:51.187Z,8.90
2019-03-13T08:52:26.236Z,8.80
2019-03-13T08:55:04.070Z,8.70
2019-03-13T08:57:55.053Z,8.70
2019-03-13T09:00:42.008Z,8.70
2019-03-13T09:03:23.120Z,8.70
2019-03-13T09:06:00.996Z,8.70
2019-03-13T09:08:36.051Z,8.70
2019-03-13T09:11:26.288Z,8.70
2019-03-13T09:14:07.016Z,8.80
2019-03-13T09:16:47.799Z,8.70
2019-03-13T09:19:34.848Z,8.90
2019-03-13T09:22:09.928Z,9.10
2019-03-13T09:24:47.764Z,9.10
2019-03-13T09:27:25.304Z,9.10
2019-03-13T09:30:06.369Z,9.20
2019-03-13T09:32:41.470Z,9.20
2019-03-13T09:35:25.513Z,9.10
2019-03-13T09:38:16.468Z,9.00
2019-03-13T09:40:57.528Z,9.00
2019-03-13T09:43:35.501Z,8.80
2019-03-13T09:46:13.217Z,8.60
2019-03-13T09:48:48.281Z,8.50
2019-03-13T09:51:29.428Z,8.40
2019-03-13T09:54:16.576Z,8.50
2019-03-13T09:56:57.744Z,8.60
2019-03-13T09:59:44.651Z,8.70
2019-03-13T10:02:19.699Z,8.80
2019-03-13T10:05:09.714Z,8.90
2019-03-13T10:07:44.760Z,9.10
2019-03-13T10:10:19.831Z,9.40
2019-03-13T10:12:54.960Z,9.50
2019-03-13T10:15:35.700Z,9.50
2019-03-13T10:18:19.591Z,9.40
2019-03-13T10:21:03.399Z,9.30
2019-03-13T10:23:41.096Z,9.50
2019-03-13T10:26:32.293Z,9.60
2019-03-13T10:29:16.538Z,9.70
2019-03-13T10:31:51.600Z,9.90
2019-03-13T10:34:26.657Z,9.90
2019-03-13T10:37:01.757Z,10.00
2019-03-13T10:39:55.039Z,9.90
2019-03-13T10:42:39.048Z,9.80
2019-03-13T10:45:14.169Z,9.90
2019-03-13T10:47:57.919Z,9.90
2019-03-13T10:50:32.981Z,9.80
2019-03-13T10:53:23.244Z,9.80
2019-03-13T10:56:14.432Z,9.90
2019-03-13T10:58:52.156Z,9.90
2019-03-13T11:01:45.468Z,9.90
2019-03-13T11:04:23.427Z,9.90
2019-03-13T11:07:04.336Z,10.00
2019-03-13T11:09:42.084Z,10.20
2019-03-13T11:12:19.863Z,10.30
2019-03-13T11:15:09.888Z,10.50
2019-03-13T11:18:00.867Z,10.50
2019-03-13T11:20:52.298Z,10.50
2019-03-13T11:23:30.078Z,10.40
2019-03-13T11:26:23.209Z,10.20
2019-03-13T11:29:00.984Z,10.10
2019-03-13T11:31:44.864Z,10.00
2019-03-13T11:34:19.909Z,9.90
2019-03-13T11:37:00.919Z,9.80
2019-03-13T11:39:36.100Z,9.70
2019-03-13T11:42:13.871Z,9.60
2019-03-13T11:44:48.927Z,9.50
2019-03-13T11:47:41.894Z,9.60
2019-03-13T11:50:12.575Z,9.60
2019-03-13T11:53:06.135Z,9.50
2019-03-13T11:55:44.369Z,9.50
2019-03-13T11:58:34.351Z,9.60
2019-03-13T12:01:17.427Z,9.80
2019-03-13T12:04:06.889Z,10.10
2019-03-13T12:06:44.644Z,10.30
2019-03-13T12:09:34.672Z,10.50
2019-03-13T12:12:26.345Z,10.60
2019-03-13T12:15:16.318Z,10.60
2019-03-13T12:17:51.391Z,10.70
2019-03-13T12:20:26.519Z,10.80
2019-03-13T12:23:19.596Z,10.70
2019-03-13T12:26:06.319Z,10.70
2019-03-13T12:28:57.678Z,10.70
2019-03-13T12:31:35.695Z,10.70
2019-03-13T12:34:10.766Z,10.70
2019-03-13T12:36:54.923Z,10.80
2019-03-13T12:39:32.715Z,10.90
2019-03-13T12:42:07.779Z,10.90
2019-03-13T12:44:51.636Z,10.90
2019-03-13T12:47:32.276Z,11.00
2019-03-13T12:50:15.996Z,10.90
2019-03-13T12:52:51.072Z,11.10
2019-03-13T12:55:26.148Z,11.10
2019-03-13T12:58:06.976Z,11.00
2019-03-13T13:00:42.048Z,11.00
2019-03-13T13:03:33.023Z,11.10
2019-03-13T13:06:13.735Z,11.20
2019-03-13T13:08:54.500Z,11.20
2019-03-13T13:11:47.307Z,11.10
2019-03-13T13:14:25.153Z,11.10
2019-03-13T13:17:18.505Z,11.10
2019-03-13T13:19:51.951Z,11.20
2019-03-13T13:22:25.367Z,11.20
2019-03-13T13:24:58.804Z,11.20
2019-03-13T13:27:32.219Z,11.20
2019-03-13T13:30:14.679Z,11.10
2019-03-13T13:32:48.088Z,11.10
2019-03-13T13:35:21.528Z,11.10
2019-03-13T13:37:54.956Z,11.00
2019-03-13T13:40:28.379Z,10.90
2019-03-13T13:43:01.823Z,10.90
2019-03-13T13:45:38.064Z,10.90
2019-03-13T13:48:11.487Z,10.90
2019-03-13T13:50:44.921Z,10.90
2019-03-13T13:53:18.339Z,10.90
2019-03-13T13:55:51.920Z,10.90
2019-03-13T13:58:28.368Z,10.90
2019-03-13T14:01:00.497Z,10.80
2019-03-13T14:03:33.918Z,10.70
2019-03-13T14:06:07.438Z,10.60
2019-03-13T14:08:40.852Z,10.60
2019-03-13T14:11:14.275Z,10.50
2019-03-13T14:13:47.808Z,10.50
2019-03-13T14:16:21.284Z,10.40
2019-03-13T14:18:54.708Z,10.30
2019-03-13T14:21:28.138Z,10.20
2019-03-13T14:24:01.545Z,10.20
2019-03-13T14:26:34.971Z,10.20
2019-03-13T14:29:08.384Z,10.20
2019-03-13T14:31:41.815Z,10.20
2019-03-13T14:34:15.224Z,10.30
2019-03-13T14:36:48.655Z,10.40
2019-03-13T14:39:22.067Z,10.50
2019-03-13T14:41:55.495Z,10.50
2019-03-13T14:44:28.933Z,10.50
2019-03-13T14:47:02.422Z,10.50
2019-03-13T14:49:35.836Z,10.40
2019-03-13T14:52:09.267Z,10.40
2019-03-13T14:54:43.255Z,10.30
2019-03-13T14:57:16.692Z,10.30
2019-03-13T14:59:50.111Z,10.20
2019-03-13T15:02:23.539Z,10.10
2019-03-13T15:04:56.964Z,10.00
2019-03-13T15:07:30.387Z,9.90
2019-03-13T15:10:06.701Z,9.80
2019-03-13T15:12:42.903Z,9.80
2019-03-13T15:15:20.928Z,9.80
2019-03-13T15:17:54.462Z,9.70
2019-03-13T15:20:29.611Z,9.80
2019-03-13T15:23:03.032Z,9.80
2019-03-13T15:25:36.448Z,9.90
2019-03-13T15:28:09.884Z,9.90
2019-03-13T15:30:43.280Z,9.90
2019-03-13T15:33:23.818Z,9.90
2019-03-13T15:35:57.231Z,9.90
2019-03-13T15:38:30.664Z,9.90
2019-03-13T15:41:04.172Z,9.90
2019-03-13T15:43:37.651Z,9.90
2019-03-13T15:46:11.065Z,9.90
2019-03-13T15:48:44.488Z,9.80
2019-03-13T15:51:17.899Z,9.70
2019-03-13T15:53:51.340Z,9.70
2019-03-13T15:56:24.776Z,9.60
2019-03-13T15:58:58.289Z,9.50
2019-03-13T16:01:31.722Z,9.40
2019-03-13T16:04:05.195Z,9.20
2019-03-13T16:06:38.611Z,9.10
2019-03-13T16:09:12.042Z,9.10
2019-03-13T16:11:45.455Z,9.10
2019-03-13T16:14:18.875Z,9.00
2019-03-13T16:16:52.302Z,9.00
2019-03-13T16:19:25.727Z,9.00
2019-03-13T16:21:59.131Z,9.00
2019-03-13T16:24:32.564Z,9.00
2019-03-13T16:27:05.975Z,8.90
2019-03-13T16:29:39.403Z,8.90
2019-03-13T16:32:14.456Z,8.80
2019-03-13T16:34:47.896Z,8.80
2019-03-13T16:37:21.319Z,8.80
2019-03-13T16:39:54.760Z,8.70
2019-03-13T16:42:28.178Z,8.60
2019-03-13T16:45:01.609Z,8.60
2019-03-13T16:47:35.015Z,8.50
2019-03-13T16:50:11.472Z,8.50
2019-03-13T16:52:44.885Z,8.30
2019-03-13T16:55:19.947Z,8.30
2019-03-13T16:57:53.432Z,8.20
2019-03-13T17:00:28.387Z,8.20
2019-03-13T17:03:01.843Z,8.20
2019-03-13T17:05:35.307Z,8.20
2019-03-13T17:08:08.722Z,8.20
2019-03-13T17:10:42.193Z,8.20
2019-03-13T17:13:15.615Z,8.20
2019-03-13T17:15:49.032Z,8.20
2019-03-13T17:18:22.452Z,8.20
2019-03-13T17:20:56.351Z,8.10
2019-03-13T17:23:29.832Z,8.10
2019-03-13T17:26:03.527Z,8.00
2019-03-13T17:28:36.936Z,8.00
2019-03-13T17:31:10.354Z,8.00
2019-03-13T17:33:43.770Z,7.90
2019-03-13T17:36:17.259Z,7.90
2019-03-13T17:38:50.674Z,7.90
2019-03-13T17:41:24.117Z,7.80
2019-03-13T17:43:57.521Z,7.80
2019-03-13T17:46:30.946Z,7.80
2019-03-13T17:49:04.359Z,7.70
2019-03-13T17:51:37.789Z,7.70
2019-03-13T17:54:11.195Z,7.80
2019-03-13T17:56:44.623Z,7.80
2019-03-13T17:59:18.027Z,7.80
2019-03-13T18:01:51.462Z,7.90
2019-03-13T18:04:24.876Z,7.90
2019-03-13T18:06:58.301Z,7.90
2019-03-13T18:09:31.714Z,7.90
2019-03-13T18:12:05.208Z,7.90
2019-03-13T18:14:38.630Z,7.90
2019-03-13T18:17:12.069Z,7.90
2019-03-13T18:19:45.475Z,8.00
2019-03-13T18:22:18.907Z,8.00
2019-03-13T18:24:52.315Z,8.00
2019-03-13T18:27:25.743Z,7.90
2019-03-13T18:29:59.172Z,7.90
2019-03-13T18:32:41.325Z,7.90
2019-03-13T18:35:09.759Z,7.90
2019-03-13T18:37:43.192Z,7.90
2019-03-13T18:40:19.676Z,7.90
2019-03-13T18:42:53.176Z,7.80
2019-03-13T18:45:28.446Z,7.90
2019-03-13T18:48:02.007Z,7.90
2019-03-13T18:50:35.419Z,8.00
2019-03-13T18:53:08.851Z,8.00
2019-03-13T18:55:42.267Z,7.90
2019-03-13T18:58:15.697Z,7.90
2019-03-13T19:00:49.109Z,8.00
2019-03-13T19:03:22.561Z,7.90
2019-03-13T19:05:55.973Z,7.90
2019-03-13T19:08:29.400Z,7.90
2019-03-13T19:11:02.900Z,7.90
2019-03-13T19:13:36.328Z,7.90
2019-03-13T19:16:09.743Z,7.90
2019-03-13T19:18:43.201Z,7.90
2019-03-13T19:21:16.625Z,7.90
2019-03-13T19:23:50.065Z,7.90
2019-03-13T19:26:24.318Z,7.80
2019-03-13T19:28:57.739Z,7.90
2019-03-13T19:31:31.191Z,7.90
2019-03-13T19:34:04.676Z,7.80
2019-03-13T19:36:38.091Z,7.80
2019-03-13T19:39:11.907Z,7.80
2019-03-13T19:41:45.331Z,7.80
2019-03-13T19:44:18.852Z,7.80
2019-03-13T19:46:52.278Z,7.80
2019-03-13T19:49:25.712Z,7.80
2019-03-13T19:51:59.524Z,7.80
2019-03-13T19:54:33.005Z,7.70
2019-03-13T19:57:06.479Z,7.80
2019-03-13T19:59:39.939Z,7.70
2019-03-13T20:02:13.351Z,7.70
2019-03-13T20:04:47.659Z,7.70
2019-03-13T20:07:21.567Z,7.70
2019-03-13T20:09:55.083Z,7.70
2019-03-13T20:12:28.504Z,7.70
2019-03-13T20:15:01.991Z,7.60
2019-03-13T20:17:35.403Z,7.60
2019-03-13T20:20:11.969Z,7.70
2019-03-13T20:22:45.515Z,7.70
2019-03-13T20:25:18.944Z,7.70
2019-03-13T20:27:54.734Z,7.60
2019-03-13T20:30:27.509Z,7.60
2019-03-13T20:33:00.914Z,7.60
2019-03-13T20:35:36.826Z,7.60
2019-03-13T20:38:09.474Z,7.60
2019-03-13T20:40:42.895Z,7.60
2019-03-13T20:43:16.315Z,7.60
2019-03-13T20:45:49.742Z,7.60
2019-03-13T20:48:23.215Z,7.60
2019-03-13T20:50:56.624Z,7.50
2019-03-13T20:53:30.035Z,7.50
2019-03-13T20:56:03.477Z,7.50
2019-03-13T20:58:36.947Z,7.40
2019-03-13T21:01:10.384Z,7.40
2019-03-13T21:03:45.732Z,7.30
2019-03-13T21:06:19.189Z,7.30
2019-03-13T21:08:54.326Z,7.20
2019-03-13T21:11:27.844Z,7.10
2019-03-13T21:14:01.307Z,7.00
2019-03-13T21:16:34.751Z,7.00
2019-03-13T21:19:08.168Z,7.00
2019-03-13T21:21:41.616Z,7.10
2019-03-13T21:24:15.079Z,7.10
2019-03-13T21:26:49.460Z,7.10
2019-03-13T21:29:23.291Z,7.10
2019-03-13T21:31:56.820Z,7.10
2019-03-13T21:34:30.211Z,7.10
2019-03-13T21:37:04.069Z,7.20
2019-03-13T21:39:37.543Z,7.10
2019-03-13T21:42:11.034Z,7.10
2019-03-13T21:44:44.448Z,7.10
2019-03-13T21:47:17.867Z,7.00
2019-03-13T21:49:51.343Z,7.00
2019-03-13T21:52:24.780Z,7.00
2019-03-13T21:54:58.192Z,7.00
2019-03-13T21:57:31.619Z,7.00
2019-03-13T22:00:24.946Z,7.00
2019-03-13T22:02:58.367Z,7.10
2019-03-13T22:05:31.785Z,7.10
2019-03-13T22:08:05.331Z,7.10
2019-03-13T22:10:38.744Z,7.20
2019-03-13T22:13:12.171Z,7.20
2019-03-13T22:15:45.593Z,7.10
2019-03-13T22:18:19.019Z,7.10
2019-03-13T22:20:52.423Z,7.10
2019-03-13T22:23:25.852Z,7.10
2019-03-13T22:25:59.264Z,7.10
2019-03-13T22:28:32.919Z,7.10
2019-03-13T22:31:06.343Z,7.10
2019-03-13T22:33:39.799Z,7.00
2019-03-13T22:36:13.220Z,7.00
2019-03-13T22:38:46.644Z,7.00
2019-03-13T22:41:20.066Z,6.90
2019-03-13T22:43:54.923Z,6.90
2019-03-13T22:46:28.331Z,6.90
2019-03-13T22:49:01.782Z,6.90
2019-03-13T22:51:35.964Z,6.90
2019-03-13T22:54:10.473Z,6.90
2019-03-13T22:56:44.144Z,6.90
2019-03-13T22:59:17.580Z,6.90
2019-03-13T23:01:51.064Z,6.90
2019-03-13T23:04:24.503Z,6.90
2019-03-13T23:06:57.922Z,6.90
2019-03-13T23:09:31.454Z,6.90
2019-03-13T23:12:04.919Z,6.80
2019-03-13T23:14:38.432Z,6.80
2019-03-13T23:17:11.844Z,6.80
2019-03-13T23:19:45.286Z,6.80
2019-03-13T23:22:18.696Z,6.70
2019-03-13T23:24:52.126Z,6.70
2019-03-13T23:27:25.527Z,6.70
2019-03-13T23:29:58.962Z,6.70
2019-03-13T23:32:32.395Z,6.70
2019-03-13T23:35:06.930Z,6.60
2019-03-13T23:37:40.449Z,6.60
2019-03-13T23:40:13.949Z,6.70
2019-03-13T23:42:47.356Z,6.70
2019-03-13T23:45:20.775Z,6.60
2019-03-13T23:47:54.188Z,6.60
2019-03-13T23:50:27.620Z,6.60
2019-03-13T23:53:01.038Z,6.60
2019-03-13T23:55:34.464Z,6.60
2019-03-13T23:58:11.129Z,6.60
